Time;durP1;ratioP1;P1;durP2;ratioP2;P2;SDS_P1;SDS_P2;PMS_P1;PMS_P2;Temp;Humidity;BMP_temperature;BMP_pressure;BME280_temperature;BME280_humidity;BME280_pressure;Samples;Min_cycle;Max_cycle;Signal;HPM_P1;HPM_P2
2022/10/08 00:03:34;;;;;;;35.33;23.70;;;;;;;8.79;100.00;99499.94;4341529;80;21548;-86
2022/10/08 00:09:36;;;;;;;41.33;23.65;;;;;;;8.70;100.00;99497.95;4324457;80;21082;-86
2022/10/08 00:15:40;;;;;;;38.33;23.90;;;;;;;8.80;100.00;99490.59;4323868;80;22113;-85
2022/10/08 00:21:44;;;;;;;59.23;27.70;;;;;;;8.64;100.00;99481.61;4315906;80;20996;-85
2022/10/08 00:27:46;;;;;;;63.35;28.32;;;;;;;8.50;100.00;99472.25;4312207;80;20996;-86
2022/10/08 00:33:53;;;;;;;60.15;25.92;;;;;;;8.39;100.00;99464.34;4314654;80;21835;-86
2022/10/08 00:39:55;;;;;;;46.30;19.73;;;;;;;8.41;100.00;99463.44;4349500;80;21043;-86
2022/10/08 00:45:56;;;;;;;63.50;29.65;;;;;;;8.48;100.00;99465.78;4333493;79;21055;-85
2022/10/08 00:51:57;;;;;;;48.52;28.07;;;;;;;8.45;100.00;99451.47;4346793;80;20965;-86
2022/10/08 00:58:07;;;;;;;40.30;24.95;;;;;;;8.26;100.00;99448.61;4327092;80;20995;-86
2022/10/08 01:04:14;;;;;;;42.15;23.83;;;;;;;8.33;100.00;99445.29;4365093;81;20968;-85
2022/10/08 01:10:39;;;;;;;41.90;25.02;;;;;;;8.48;100.00;99439.05;4343377;80;20980;-86
2022/10/08 01:17:14;;;;;;;52.58;27.25;;;;;;;8.48;100.00;99441.22;4348844;80;21027;-85
2022/10/08 01:29:47;;;;;;;43.52;26.70;;;;;;;8.35;100.00;99428.78;4299454;80;20972;-85
2022/10/08 01:35:56;;;;;;;40.03;26.42;;;;;;;8.29;100.00;99425.29;4346484;79;21124;-85
2022/10/08 01:42:00;;;;;;;59.23;28.98;;;;;;;8.23;100.00;99423.41;4318296;80;21565;-86
2022/10/08 01:48:08;;;;;;;39.15;24.15;;;;;;;8.31;100.00;99424.38;4319960;80;21047;-85
2022/10/08 01:54:14;;;;;;;47.67;26.33;;;;;;;8.40;100.00;99420.34;4334492;80;21035;-85
2022/10/08 02:00:16;;;;;;;37.80;24.13;;;;;;;8.53;100.00;99408.79;4338233;80;21546;-85
2022/10/08 02:06:19;;;;;;;41.53;24.05;;;;;;;8.58;100.00;99410.67;4323085;80;20988;-86
2022/10/08 02:12:23;;;;;;;41.90;25.08;;;;;;;8.57;100.00;99401.47;4305883;80;21008;-85
2022/10/08 02:19:01;;;;;;;38.70;23.55;;;;;;;8.67;100.00;99402.33;4334224;80;21031;-86
2022/10/08 02:25:19;;;;;;;35.55;23.42;;;;;;;8.71;100.00;99409.45;4328606;80;21012;-85
2022/10/08 02:31:50;;;;;;;41.50;23.15;;;;;;;8.74;100.00;99406.61;4328795;80;21595;-86
2022/10/08 02:38:01;;;;;;;43.95;23.55;;;;;;;8.63;100.00;99400.86;4342625;79;21397;-86
2022/10/08 02:44:11;;;;;;;39.55;23.77;;;;;;;8.65;100.00;99399.14;4336801;80;21031;-86
2022/10/08 02:57:21;;;;;;;40.80;24.02;;;;;;;8.64;100.00;99401.10;4334917;80;21056;-85
2022/10/08 03:03:30;;;;;;;35.17;22.87;;;;;;;8.59;100.00;99399.99;4242722;80;96733;-86
2022/10/08 03:09:38;;;;;;;37.53;22.87;;;;;;;8.58;100.00;99400.34;4224000;82;22026;-86
2022/10/08 03:15:49;;;;;;;34.40;23.52;;;;;;;8.59;100.00;99397.83;4236079;83;21134;-86
2022/10/08 03:22:02;;;;;;;37.75;21.15;;;;;;;8.51;100.00;99402.88;4199364;83;21006;-86
2022/10/08 03:28:13;;;;;;;31.85;19.90;;;;;;;8.58;100.00;99398.98;4387966;81;21853;-85
2022/10/08 03:34:16;;;;;;;38.40;18.05;;;;;;;8.60;100.00;99393.38;4390876;81;21511;-85
2022/10/08 03:40:17;;;;;;;28.73;17.35;;;;;;;8.60;100.00;99402.12;4387692;79;21562;-85
2022/10/08 03:46:23;;;;;;;28.92;18.45;;;;;;;8.53;100.00;99395.14;4412735;81;20979;-86
2022/10/08 03:52:41;;;;;;;25.92;17.32;;;;;;;8.30;100.00;99388.12;4412667;81;21058;-86
2022/10/08 03:58:56;;;;;;;25.62;16.97;;;;;;;8.33;100.00;99396.19;4404181;80;21000;-86
2022/10/08 04:04:58;;;;;;;25.52;17.15;;;;;;;8.32;100.00;99391.30;4401555;79;21054;-86
2022/10/08 04:11:14;;;;;;;26.10;18.05;;;;;;;8.31;100.00;99395.17;4403695;79;21062;-86
2022/10/08 04:17:16;;;;;;;24.85;17.05;;;;;;;8.26;100.00;99392.70;4407092;79;21027;-85
2022/10/08 04:23:19;;;;;;;23.62;15.65;;;;;;;8.15;100.00;99392.16;4412678;81;20995;-86
2022/10/08 04:29:40;;;;;;;23.85;15.95;;;;;;;8.07;100.00;99389.81;4297394;82;21017;-86
2022/10/08 04:35:41;;;;;;;20.65;14.00;;;;;;;8.00;100.00;99391.00;4408090;80;21039;-86
2022/10/08 04:41:49;;;;;;;24.77;15.45;;;;;;;7.94;100.00;99385.55;4400090;79;21036;-86
2022/10/08 04:47:51;;;;;;;28.52;15.72;;;;;;;7.75;100.00;99386.79;4379797;81;21536;-85
2022/10/08 04:53:56;;;;;;;25.52;15.03;;;;;;;7.54;100.00;99378.80;4380352;81;21003;-86
2022/10/08 04:59:57;;;;;;;20.37;13.83;;;;;;;7.54;100.00;99379.36;4379768;80;21000;-86
2022/10/08 05:06:07;;;;;;;25.35;16.15;;;;;;;7.48;100.00;99371.20;4380321;80;20985;-86
2022/10/08 05:12:09;;;;;;;23.77;15.15;;;;;;;7.44;100.00;99375.74;4383245;80;21031;-85
2022/10/08 05:18:15;;;;;;;23.02;16.23;;;;;;;7.44;100.00;99381.99;4382339;81;20973;-86
2022/10/08 05:24:24;;;;;;;25.45;17.12;;;;;;;7.32;100.00;99383.95;4342279;81;21071;-87
2022/10/08 05:30:25;;;;;;;25.95;17.10;;;;;;;7.26;100.00;99384.77;4163982;85;21012;-86
2022/10/08 05:42:58;;;;;;;31.02;19.98;;;;;;;7.30;100.00;99402.55;4162894;84;20972;-87
2022/10/08 05:49:03;;;;;;;26.62;19.35;;;;;;;7.30;100.00;99403.92;4166644;84;20999;-85
2022/10/08 05:55:07;;;;;;;25.45;19.12;;;;;;;7.17;100.00;99407.81;4161321;83;21003;-86
2022/10/08 06:01:27;;;;;;;28.23;19.55;;;;;;;7.27;100.00;99414.14;4230799;84;21016;-85
2022/10/08 06:07:39;;;;;;;26.02;17.75;;;;;;;7.58;100.00;99415.69;4078285;87;21021;-86
2022/10/08 06:13:40;;;;;;;29.27;18.10;;;;;;;8.03;100.00;99411.52;4165071;84;21051;-86
2022/10/08 06:19:53;;;;;;;23.05;16.65;;;;;;;8.70;100.00;99418.80;4165390;84;21504;-86
2022/10/08 06:26:08;;;;;;;23.00;16.62;;;;;;;9.20;100.00;99425.67;4152044;84;21877;-86
2022/10/08 06:32:09;;;;;;;26.95;18.57;;;;;;;9.57;100.00;99420.63;4243037;82;21047;-86
2022/10/08 06:38:12;;;;;;;25.70;17.40;;;;;;;9.48;100.00;99424.95;4258474;82;21012;-85
2022/10/08 06:57:21;;;;;;;29.55;21.17;;;;;;;9.69;100.00;99432.81;4233598;82;21166;-86
2022/10/08 07:03:27;;;;;;;25.30;17.92;;;;;;;9.99;100.00;99433.81;4237390;82;21183;-86
2022/10/08 07:16:15;;;;;;;25.30;17.02;;;;;;;10.28;100.00;99429.73;4242231;82;21012;-86
2022/10/08 07:22:24;;;;;;;23.00;17.55;;;;;;;10.51;100.00;99427.81;4253532;82;20976;-86
2022/10/08 07:35:14;;;;;;;26.27;16.23;;;;;;;11.25;100.00;99419.45;4169786;84;21671;-86
2022/10/08 07:41:15;;;;;;;23.80;16.00;;;;;;;11.84;100.00;99416.81;4257478;82;21075;-86
2022/10/08 07:47:20;;;;;;;20.32;13.83;;;;;;;12.26;100.00;99407.09;4240164;82;21051;-86
2022/10/08 07:53:22;;;;;;;24.23;12.47;;;;;;;12.58;100.00;99402.73;4238807;82;21023;-86
2022/10/08 07:59:30;;;;;;;20.92;12.07;;;;;;;12.99;100.00;99404.86;4252490;82;21528;-85
2022/10/08 08:05:40;;;;;;;16.02;11.22;;;;;;;13.42;100.00;99404.00;4239778;82;21016;-86
2022/10/08 08:11:41;;;;;;;18.05;9.23;;;;;;;13.83;100.00;99397.73;4237338;82;21039;-87
2022/10/08 08:17:42;;;;;;;18.32;8.98;;;;;;;14.17;100.00;99390.19;4242177;82;21420;-86
2022/10/08 08:30:39;;;;;;;13.05;7.60;;;;;;;15.68;100.00;99379.80;4247441;82;22015;-86
2022/10/08 08:36:44;;;;;;;10.90;7.30;;;;;;;16.88;100.00;99375.80;4241016;82;21077;-87
2022/10/08 08:42:55;;;;;;;9.83;6.87;;;;;;;17.75;100.00;99382.47;4238901;82;21178;-88
2022/10/08 08:49:01;;;;;;;9.08;6.15;;;;;;;18.87;100.00;99379.36;4243149;82;21051;-88
2022/10/08 08:55:11;;;;;;;6.78;4.83;;;;;;;19.91;97.20;99373.89;4224714;82;21047;-87
2022/10/08 09:01:18;;;;;;;8.93;4.28;;;;;;;21.02;96.46;99366.83;4238474;82;21049;-87
2022/10/08 09:07:24;;;;;;;7.62;4.35;;;;;;;21.55;92.11;99364.83;4222459;82;21081;-88
2022/10/08 09:13:31;;;;;;;6.80;3.65;;;;;;;22.26;91.06;99365.80;4226922;83;21043;-88
2022/10/08 09:19:37;;;;;;;7.10;3.83;;;;;;;23.09;88.87;99373.34;4218376;83;21070;-87
2022/10/08 09:25:36;;;;;;;7.22;3.10;;;;;;;23.66;85.17;99367.39;4229065;82;22017;-88
2022/10/08 09:31:48;;;;;;;5.83;3.25;;;;;;;23.06;78.67;99369.44;4226773;82;21039;-88
2022/10/08 09:37:51;;;;;;;8.28;3.22;;;;;;;23.96;77.36;99335.14;4246639;82;21092;-87
2022/10/08 09:44:12;;;;;;;3.42;2.80;;;;;;;23.96;77.36;99335.14;4237000;82;21075;-87
2022/10/08 09:50:18;;;;;;;6.70;3.30;;;;;;;24.52;75.48;99347.72;4200900;82;21050;-88
2022/10/08 09:56:30;;;;;;;6.53;3.12;;;;;;;24.85;74.17;99342.45;4237620;82;21012;-88
2022/10/08 10:02:37;;;;;;;8.60;3.55;;;;;;;25.05;72.33;99336.41;4233464;82;20999;-88
2022/10/08 10:08:56;;;;;;;7.92;3.27;;;;;;;24.60;66.65;99320.26;4228563;82;21044;-88
2022/10/08 10:15:12;;;;;;;6.22;3.20;;;;;;;24.93;66.73;99312.91;4240120;82;21513;-88
2022/10/08 10:21:18;;;;;;;9.33;3.17;;;;;;;25.67;66.89;99306.27;4223899;82;21140;-88
2022/10/08 10:27:46;;;;;;;6.33;3.52;;;;;;;26.43;65.26;99306.56;4239913;82;20987;-88
2022/10/08 10:33:58;;;;;;;7.75;3.70;;;;;;;26.68;64.43;99299.93;4241444;82;21031;-89
2022/10/08 10:40:11;;;;;;;5.08;2.95;;;;;;;26.56;62.54;99303.69;4223910;82;21063;-88
2022/10/08 10:46:27;;;;;;;6.28;4.05;;;;;;;25.98;60.05;99294.20;4258066;82;21622;-88
2022/10/08 10:52:46;;;;;;;9.43;3.72;;;;;;;25.30;59.67;99284.30;4249983;82;21524;-87
2022/10/08 10:59:31;;;;;;;5.08;3.17;;;;;;;24.81;59.87;99273.84;4253333;82;21083;-88
2022/10/08 11:05:36;;;;;;;6.30;3.45;;;;;;;23.96;58.72;99268.83;4235408;82;21063;-87
2022/10/08 11:11:45;;;;;;;6.65;2.90;;;;;;;24.04;58.51;99259.57;4237240;82;21050;-87
2022/10/08 11:18:21;;;;;;;7.75;3.75;;;;;;;23.98;58.24;99253.78;4234714;82;21012;-88
2022/10/08 11:24:38;;;;;;;8.43;4.03;;;;;;;23.45;57.00;99242.41;4235140;82;21059;-87
2022/10/08 11:44:39;;;;;;;6.78;3.62;;;;;;;22.78;57.04;99221.06;4066443;84;21060;-87
2022/10/08 11:50:40;;;;;;;5.20;3.47;;;;;;;22.52;58.09;99213.20;4246784;83;21098;-88
2022/10/08 11:56:54;;;;;;;4.33;3.77;;;;;;;22.38;58.36;99206.68;4216544;83;20980;-87
2022/10/08 12:02:54;;;;;;;5.30;3.80;;;;;;;22.22;58.79;99204.02;4230069;83;21010;-88
2022/10/08 12:09:05;;;;;;;5.15;3.70;;;;;;;21.87;58.42;99210.09;4220136;83;21027;-88
2022/10/08 12:15:34;;;;;;;4.55;3.72;;;;;;;21.56;59.03;99195.11;4135969;85;21059;-88
2022/10/08 12:21:46;;;;;;;5.12;4.05;;;;;;;21.44;59.74;99192.45;4226518;83;21191;-86
2022/10/08 12:34:56;;;;;;;;;;;;;;;21.26;59.81;99190.81;4207303;82;21186;-87
2022/10/08 12:41:47;;;;;;;8.68;4.87;;;;;;;21.06;60.58;99186.63;4246803;82;20164;-86
2022/10/08 12:55:00;;;;;;;5.50;4.72;;;;;;;21.04;61.91;99176.54;4076056;85;21083;-87
2022/10/08 13:01:13;;;;;;;8.30;4.97;;;;;;;20.94;61.97;99174.19;4224108;82;21085;-87
2022/10/08 13:07:28;;;;;;;8.98;5.30;;;;;;;20.87;62.88;99170.23;4281513;82;21067;-87
2022/10/08 13:13:48;;;;;;;8.55;6.40;;;;;;;20.85;63.50;99171.87;4208880;83;21427;-87
2022/10/08 13:20:11;;;;;;;11.60;6.97;;;;;;;20.81;63.75;99166.42;4194531;83;21047;-88
2022/10/08 13:26:41;;;;;;;7.50;5.65;;;;;;;20.70;63.64;99169.31;4206406;83;21051;-87
2022/10/08 13:32:43;;;;;;;8.43;6.03;;;;;;;20.62;64.09;99166.55;4149299;84;21397;-87
2022/10/08 13:38:44;;;;;;;11.55;6.95;;;;;;;20.46;65.20;99172.13;4142445;84;21042;-87
2022/10/08 13:44:46;;;;;;;7.28;6.50;;;;;;;20.34;65.13;99177.02;4081065;85;21041;-87
2022/10/08 13:50:52;;;;;;;8.75;7.70;;;;;;;20.18;65.93;99170.85;4096505;85;21051;-86
2022/10/08 13:56:54;;;;;;;7.92;7.12;;;;;;;20.12;66.45;99173.95;4127295;84;21089;-87
2022/10/08 14:02:55;;;;;;;8.58;7.40;;;;;;;20.05;67.08;99163.00;4137048;84;21107;-86
2022/10/08 14:09:06;;;;;;;8.65;7.28;;;;;;;19.96;67.40;99164.22;4108712;85;21031;-86
2022/10/08 14:15:11;;;;;;;12.35;8.13;;;;;;;19.94;67.82;99163.86;4095050;85;21079;-86
2022/10/08 14:21:17;;;;;;;10.28;8.28;;;;;;;19.85;68.36;99159.52;4114671;85;21544;-87
2022/10/08 14:27:19;;;;;;;;;;;;;;;19.77;68.85;99150.58;4102290;85;21127;-88
2022/10/08 14:33:23;;;;;;;11.28;8.45;;;;;;;19.70;69.29;99159.69;4076489;85;20910;-86
2022/10/08 14:39:25;;;;;;;13.38;8.70;;;;;;;19.37;70.20;99149.72;4093515;85;21067;-87
2022/10/08 14:45:27;;;;;;;12.93;8.85;;;;;;;19.21;71.40;99150.42;4093853;85;21024;-87
2022/10/08 14:51:37;;;;;;;13.20;10.20;;;;;;;19.17;71.84;99151.70;4084227;85;21432;-86
2022/10/08 14:57:34;;;;;;;12.47;9.65;;;;;;;19.04;72.63;99151.57;4087969;85;21060;-86
2022/10/08 15:03:35;;;;;;;13.15;9.68;;;;;;;18.99;72.96;99147.91;4100348;85;21008;-87
2022/10/08 15:09:39;;;;;;;15.08;10.13;;;;;;;18.96;73.32;99151.53;4079939;85;21675;-86
2022/10/08 15:15:42;;;;;;;14.35;9.65;;;;;;;18.86;73.77;99162.81;4111854;85;21056;-86
2022/10/08 15:21:44;;;;;;;14.70;10.15;;;;;;;18.73;74.34;99175.77;4086931;85;21055;-85
2022/10/08 15:27:45;;;;;;;16.57;10.85;;;;;;;18.59;75.03;99176.79;4104273;85;21547;-86
2022/10/08 15:33:52;;;;;;;14.15;11.75;;;;;;;18.48;75.66;99185.30;4019645;86;21466;-86
2022/10/08 15:39:53;;;;;;;;;;;;;;;18.38;76.37;99197.38;4024363;86;21032;-88
2022/10/08 15:45:55;;;;;;;16.37;11.75;;;;;;;18.16;77.63;99193.95;4021099;86;20260;-86
2022/10/08 15:51:56;;;;;;;15.95;12.07;;;;;;;17.98;77.72;99202.53;4037727;87;21045;-86
2022/10/08 15:57:57;;;;;;;15.60;11.65;;;;;;;17.71;78.42;99212.81;4036893;87;21529;-86
2022/10/08 16:04:02;;;;;;;17.12;12.30;;;;;;;17.64;79.12;99214.31;4036186;87;20997;-86
2022/10/08 16:10:05;;;;;;;19.62;12.78;;;;;;;17.53;79.76;99226.72;4034250;86;20993;-86
2022/10/08 16:16:11;;;;;;;19.52;12.55;;;;;;;17.36;80.31;99231.85;3981614;87;21050;-86
2022/10/08 16:22:12;;;;;;;26.52;13.18;;;;;;;17.18;80.99;99236.20;4029918;86;21084;-87
2022/10/08 16:28:17;;;;;;;20.08;13.62;;;;;;;16.85;81.10;99241.91;4033607;85;21525;-86
2022/10/08 16:34:25;;;;;;;20.97;13.20;;;;;;;16.58;82.15;99236.86;4083822;85;21068;-86
2022/10/08 16:40:30;;;;;;;22.17;14.75;;;;;;;16.41;82.53;99242.50;4099412;85;21047;-86
2022/10/08 16:46:36;;;;;;;21.90;16.15;;;;;;;16.27;83.35;99245.38;4100528;85;20989;-86
2022/10/08 16:52:38;;;;;;;26.23;17.80;;;;;;;16.29;83.81;99246.53;3982324;85;9999715;-86
2022/10/08 16:58:40;;;;;;;19.75;14.95;;;;;;;16.26;84.18;99258.98;4311224;82;21015;-86
2022/10/08 17:04:41;;;;;;;21.82;16.87;;;;;;;16.18;84.52;99259.63;4246068;82;21373;-86
2022/10/08 17:10:42;;;;;;;26.80;16.97;;;;;;;16.12;85.17;99263.23;4238184;82;21583;-86
2022/10/08 17:16:44;;;;;;;23.15;15.70;;;;;;;15.99;85.25;99265.67;4183098;82;21045;-86
2022/10/08 17:22:46;;;;;;;22.77;16.70;;;;;;;15.89;85.99;99269.89;4320344;82;21051;-87
2022/10/08 17:28:50;;;;;;;25.50;18.52;;;;;;;15.68;86.13;99274.16;4241229;82;20992;-86
2022/10/08 17:34:54;;;;;;;25.95;20.00;;;;;;;15.54;86.99;99283.27;4299152;82;21016;-86
2022/10/08 17:40:56;;;;;;;28.07;21.87;;;;;;;15.55;87.51;99298.05;4306475;82;21043;-85
2022/10/08 17:46:58;;;;;;;40.98;24.25;;;;;;;15.42;87.65;99294.75;4245481;82;21027;-85
2022/10/08 17:52:59;;;;;;;35.83;23.83;;;;;;;15.31;88.14;99298.11;4313589;82;21035;-85
2022/10/08 17:59:01;;;;;;;42.33;28.27;;;;;;;15.24;88.45;99309.14;4258097;82;21061;-85
2022/10/08 18:05:02;;;;;;;34.33;24.98;;;;;;;15.18;88.97;99309.36;4177372;84;21044;-85
2022/10/08 18:11:07;;;;;;;43.80;28.35;;;;;;;15.12;89.24;99321.41;4109380;85;21071;-86
2022/10/08 18:17:14;;;;;;;47.65;31.07;;;;;;;14.95;89.50;99320.84;4057246;85;21067;-86
2022/10/08 18:23:15;;;;;;;38.20;23.10;;;;;;;14.84;90.04;99324.20;4100236;85;22097;-85
2022/10/08 18:29:16;;;;;;;31.42;23.18;;;;;;;14.75;90.41;99332.06;4117613;84;21044;-85
2022/10/08 18:36:05;;;;;;;36.45;26.35;;;;;;;14.63;90.85;99328.91;4115725;84;21000;-86
2022/10/08 18:42:07;;;;;;;31.05;22.07;;;;;;;14.48;91.03;99332.27;4144380;85;21016;-86
2022/10/08 18:48:08;;;;;;;47.27;30.92;;;;;;;14.32;91.49;99333.23;4117237;84;22002;-85
2022/10/08 18:54:11;;;;;;;37.70;26.45;;;;;;;14.22;92.13;99333.95;4132480;84;21083;-86
2022/10/08 19:00:13;;;;;;;38.05;25.77;;;;;;;14.18;92.75;99331.22;4148315;84;21028;-85
2022/10/08 19:06:17;;;;;;;45.05;28.87;;;;;;;14.16;93.26;99330.81;4231540;82;21115;-85
2022/10/08 19:12:54;;;;;;;41.08;27.85;;;;;;;14.08;93.76;99352.61;4227812;82;21036;-85
2022/10/08 19:19:06;;;;;;;35.80;25.23;;;;;;;13.99;94.14;99356.91;4266647;82;21682;-85
2022/10/08 19:25:08;;;;;;;39.85;25.92;;;;;;;13.95;94.46;99368.51;4264582;82;21584;-85
2022/10/08 19:31:30;;;;;;;44.15;30.08;;;;;;;13.90;94.98;99384.81;4222280;82;20970;-85
2022/10/08 19:37:32;;;;;;;45.52;29.37;;;;;;;13.88;96.17;99394.03;4224980;83;21046;-85
2022/10/08 19:43:35;;;;;;;42.25;28.27;;;;;;;14.04;97.12;99394.50;4220566;83;21029;-85
2022/10/08 19:49:36;;;;;;;38.80;28.47;;;;;;;14.16;97.46;99397.47;4224637;83;21040;-86
2022/10/08 19:55:38;;;;;;;42.93;29.87;;;;;;;14.22;97.58;99407.53;4223889;83;20985;-85
2022/10/08 20:01:40;;;;;;;41.70;27.98;;;;;;;14.23;97.82;99416.78;4138517;84;21060;-86
2022/10/08 20:07:42;;;;;;;43.10;29.80;;;;;;;14.22;97.95;99420.69;4289569;83;20962;-85
2022/10/08 20:13:46;;;;;;;46.50;30.68;;;;;;;14.24;98.36;99432.14;4199995;83;20980;-85
2022/10/08 20:19:48;;;;;;;41.13;28.12;;;;;;;14.28;98.68;99444.55;4228112;83;21005;-85
2022/10/08 20:25:49;;;;;;;43.08;28.23;;;;;;;14.27;98.74;99445.13;4171672;83;21016;-85
2022/10/08 20:31:54;;;;;;;51.13;31.90;;;;;;;14.25;98.83;99445.33;4227680;82;21015;-85
2022/10/08 20:37:57;;;;;;;46.53;31.50;;;;;;;14.11;98.77;99450.14;4246539;82;21876;-86
2022/10/08 20:44:01;;;;;;;49.05;31.52;;;;;;;14.07;99.10;99455.66;4258169;82;20945;-85
2022/10/08 20:50:08;;;;;;;43.87;30.23;;;;;;;14.04;99.37;99463.89;4236614;82;21754;-86
2022/10/08 20:56:11;;;;;;;;;;;;;;;14.04;99.83;99468.02;4249084;82;20990;-87
2022/10/08 21:02:12;;;;;;;48.75;31.05;;;;;;;14.00;100.00;99476.86;4239655;82;20186;-86
2022/10/08 21:08:14;;;;;;;52.13;35.23;;;;;;;13.97;100.00;99481.16;4242739;82;21010;-86
2022/10/08 21:14:21;;;;;;;54.42;35.92;;;;;;;13.93;100.00;99478.19;4247036;82;21765;-85
2022/10/08 21:20:22;;;;;;;49.42;35.15;;;;;;;13.97;100.00;99483.91;4230409;82;20984;-86
2022/10/08 21:26:29;;;;;;;54.65;37.38;;;;;;;13.98;100.00;99491.59;4246097;82;21126;-86
2022/10/08 21:32:30;;;;;;;54.33;35.13;;;;;;;13.87;100.00;99482.48;4218822;82;21056;-86
2022/10/08 21:38:33;;;;;;;55.70;35.83;;;;;;;13.89;100.00;99483.66;4265153;82;21043;-87
2022/10/08 21:44:34;;;;;;;54.75;33.80;;;;;;;13.84;100.00;99485.40;4242471;82;20968;-86
2022/10/08 21:50:35;;;;;;;47.43;33.15;;;;;;;13.83;100.00;99482.45;4233942;82;20990;-85
2022/10/08 21:56:40;;;;;;;51.88;33.88;;;;;;;13.85;100.00;99489.75;4211037;82;21788;-86
2022/10/08 22:02:42;;;;;;;50.92;34.23;;;;;;;13.83;100.00;99490.71;4227469;82;21450;-86
2022/10/08 22:08:44;;;;;;;53.83;34.70;;;;;;;13.79;100.00;99502.30;4235388;82;21693;-86
2022/10/08 22:14:45;;;;;;;47.25;33.25;;;;;;;13.84;100.00;99503.89;4257835;82;21067;-86
2022/10/08 22:20:49;;;;;;;53.65;32.10;;;;;;;13.90;100.00;99508.66;4235065;82;21929;-86
2022/10/08 22:26:53;;;;;;;45.70;32.23;;;;;;;13.88;100.00;99514.33;4197522;82;21099;-86
2022/10/08 22:32:56;;;;;;;44.05;30.10;;;;;;;13.93;100.00;99520.84;4241271;82;21023;-86
2022/10/08 22:39:01;;;;;;;53.00;32.75;;;;;;;13.99;100.00;99522.06;4250358;82;21990;-86
2022/10/08 22:45:10;;;;;;;48.50;31.23;;;;;;;14.03;100.00;99523.66;4234860;82;21042;-87
2022/10/08 22:51:19;;;;;;;48.63;31.33;;;;;;;14.04;100.00;99530.76;4242606;82;21003;-86
2022/10/08 22:57:21;;;;;;;48.60;31.57;;;;;;;14.05;100.00;99538.41;4244310;82;21104;-86
2022/10/08 23:03:22;;;;;;;44.80;29.45;;;;;;;14.05;100.00;99540.58;4246101;82;21071;-86
2022/10/08 23:09:25;;;;;;;44.05;29.70;;;;;;;14.05;100.00;99537.83;4244151;82;21796;-86
2022/10/08 23:15:31;;;;;;;42.20;28.30;;;;;;;14.08;100.00;99550.02;4241860;82;20985;-85
2022/10/08 23:21:34;;;;;;;45.03;29.37;;;;;;;14.04;100.00;99548.65;4237601;82;21043;-85
2022/10/08 23:27:37;;;;;;;39.23;28.23;;;;;;;14.03;100.00;99559.44;4240110;82;21696;-86
2022/10/08 23:33:42;;;;;;;41.20;27.07;;;;;;;14.05;100.00;99568.69;4234261;82;21847;-86
2022/10/08 23:39:43;;;;;;;40.05;26.70;;;;;;;14.03;100.00;99575.19;4245688;82;21083;-85
2022/10/08 23:45:45;;;;;;;39.55;24.82;;;;;;;13.99;100.00;99588.12;4240083;82;21510;-85
2022/10/08 23:51:46;;;;;;;38.25;25.17;;;;;;;14.01;100.00;99597.59;4236420;82;21051;-85
2022/10/08 23:57:52;;;;;;;39.20;24.45;;;;;;;13.97;100.00;99603.64;4269038;82;21951;-85
